Time;durP1;ratioP1;P1;durP2;ratioP2;P2;SDS_P1;SDS_P2;PMS_P1;PMS_P2;Temp;Humidity;BMP_temperature;BMP_pressure;BME280_temperature;BME280_humidity;BME280_pressure;Samples;Min_cycle;Max_cycle;Signal;HPM_P1;HPM_P2
2021/05/15 00:00:20;;;;;;;17.87;12.70;;;9.50;99.90;;;;;;5248814;28;20310;-74
2021/05/15 00:02:51;;;;;;;17.10;12.47;;;9.50;99.90;;;;;;5248872;28;20176;-74
2021/05/15 00:05:22;;;;;;;15.80;12.60;;;9.50;99.90;;;;;;5247225;28;20173;-77
2021/05/15 00:07:53;;;;;;;15.97;11.67;;;9.50;99.90;;;;;;5248184;28;20226;-77
2021/05/15 00:10:24;;;;;;;14.30;10.27;;;9.50;99.90;;;;;;5248335;28;20630;-76
2021/05/15 00:12:54;;;;;;;13.20;10.30;;;9.50;99.90;;;;;;5248491;28;20193;-76
2021/05/15 00:15:26;;;;;;;13.77;10.80;;;9.50;99.90;;;;;;5247589;28;20181;-74
2021/05/15 00:17:57;;;;;;;13.53;10.53;;;9.50;99.90;;;;;;5248577;28;20204;-77
2021/05/15 00:20:28;;;;;;;12.43;9.80;;;9.50;99.90;;;;;;5248595;28;20188;-74
2021/05/15 00:22:59;;;;;;;16.37;10.60;;;9.40;99.90;;;;;;5246986;28;20184;-76
2021/05/15 00:25:29;;;;;;;15.53;10.57;;;9.40;99.90;;;;;;5248527;28;20181;-75
2021/05/15 00:28:00;;;;;;;15.80;10.77;;;9.40;99.90;;;;;;5248175;28;20176;-71
2021/05/15 00:30:31;;;;;;;13.03;9.90;;;9.40;99.90;;;;;;5248466;28;20276;-77
2021/05/15 00:33:02;;;;;;;13.73;9.63;;;9.50;99.90;;;;;;5248538;28;20204;-78
2021/05/15 00:35:33;;;;;;;12.03;9.27;;;9.40;99.90;;;;;;5248706;28;20177;-77
2021/05/15 00:38:04;;;;;;;12.47;9.33;;;9.40;99.90;;;;;;5247069;28;20652;-75
2021/05/15 00:40:34;;;;;;;11.67;9.30;;;9.40;99.90;;;;;;5248333;28;20601;-75
2021/05/15 00:43:07;;;;;;;14.40;10.87;;;9.40;99.90;;;;;;5248467;28;20227;-77
2021/05/15 00:45:38;;;;;;;12.60;10.30;;;9.40;99.90;;;;;;5248450;28;20254;-74
2021/05/15 00:48:09;;;;;;;13.37;10.27;;;9.50;99.90;;;;;;5248101;28;20177;-78
2021/05/15 00:50:39;;;;;;;17.47;11.00;;;9.50;99.90;;;;;;5248314;28;20185;-75
2021/05/15 00:53:10;;;;;;;15.70;11.43;;;9.50;99.90;;;;;;5248358;28;20169;-74
2021/05/15 00:55:42;;;;;;;14.47;11.23;;;9.50;99.90;;;;;;5250497;28;20281;-78
2021/05/15 00:58:13;;;;;;;13.97;11.27;;;9.50;99.90;;;;;;5251083;28;20247;-74
2021/05/15 01:00:43;;;;;;;13.77;10.60;;;9.50;99.90;;;;;;5251972;28;20232;-77
2021/05/15 01:03:14;;;;;;;15.20;10.60;;;9.60;99.90;;;;;;5251196;28;20583;-75
2021/05/15 01:05:45;;;;;;;13.60;10.80;;;9.50;99.90;;;;;;5253542;28;20526;-76
2021/05/15 01:08:18;;;;;;;12.77;10.03;;;9.50;99.90;;;;;;5259931;28;20207;-72
2021/05/15 01:10:49;;;;;;;12.17;9.20;;;9.50;99.90;;;;;;5266366;28;20223;-69
2021/05/15 01:13:31;;;;;;;16.20;10.47;;;9.50;99.90;;;;;;5267735;28;20209;-77
2021/05/15 01:16:03;;;;;;;14.60;10.83;;;9.50;99.90;;;;;;5269219;28;20173;-75
2021/05/15 01:18:33;;;;;;;13.70;10.50;;;9.40;99.90;;;;;;5270286;28;20213;-76
2021/05/15 01:21:04;;;;;;;14.10;10.50;;;9.40;99.90;;;;;;5257137;28;20523;-72
2021/05/15 01:23:35;;;;;;;13.87;10.50;;;9.40;99.90;;;;;;5252557;28;20228;-76
2021/05/15 01:26:18;;;;;;;14.97;10.17;;;9.50;99.90;;;;;;5252277;28;20292;-75
2021/05/15 01:28:58;;;;;;;13.53;10.53;;;9.50;99.90;;;;;;5252496;28;20169;-76
2021/05/15 01:31:31;;;;;;;13.43;10.37;;;9.50;99.90;;;;;;5251943;28;20185;-75
2021/05/15 01:34:03;;;;;;;13.57;9.83;;;9.50;99.90;;;;;;5251351;28;20208;-76
2021/05/15 01:36:42;;;;;;;11.80;9.43;;;9.50;99.90;;;;;;5251788;28;20375;-76
2021/05/15 01:39:15;;;;;;;15.00;10.03;;;9.60;99.90;;;;;;5251068;28;20613;-75
2021/05/15 01:41:46;;;;;;;15.73;11.00;;;9.60;99.90;;;;;;5252044;28;20177;-76
2021/05/15 01:44:16;;;;;;;14.70;10.90;;;9.60;99.90;;;;;;5251127;28;20181;-75
2021/05/15 01:46:47;;;;;;;14.60;11.30;;;9.70;99.90;;;;;;5251278;28;20226;-76
2021/05/15 01:49:19;;;;;;;16.70;10.20;;;9.70;99.90;;;;;;5251366;28;20608;-75
2021/05/15 01:51:50;;;;;;;16.90;10.93;;;9.70;99.90;;;;;;5250274;28;20196;-74
2021/05/15 01:54:20;;;;;;;15.53;10.70;;;9.70;99.90;;;;;;5251168;28;20553;-76
2021/05/15 01:56:51;;;;;;;12.37;9.87;;;9.80;99.90;;;;;;5250809;28;20286;-77
2021/05/15 01:59:22;;;;;;;12.13;9.47;;;9.80;99.90;;;;;;5250790;28;20279;-76
2021/05/15 02:01:52;;;;;;;16.13;10.90;;;9.80;99.90;;;;;;5250881;28;20174;-74
2021/05/15 02:04:23;;;;;;;14.77;11.30;;;9.90;99.90;;;;;;5250031;28;20180;-77
2021/05/15 02:06:56;;;;;;;15.63;11.50;;;9.80;99.90;;;;;;5251153;28;20185;-76
2021/05/15 02:09:27;;;;;;;13.30;10.30;;;9.90;99.90;;;;;;5249742;28;20179;-76
2021/05/15 02:11:58;;;;;;;14.77;11.50;;;9.80;99.90;;;;;;5250754;28;20177;-77
2021/05/15 02:14:28;;;;;;;17.73;12.40;;;9.80;99.90;;;;;;5250455;28;20624;-75
2021/05/15 02:16:59;;;;;;;15.20;11.77;;;9.80;99.90;;;;;;5252928;28;20178;-77
2021/05/15 02:19:29;;;;;;;15.37;11.83;;;9.80;99.90;;;;;;5256546;28;20173;-75
2021/05/15 02:22:00;;;;;;;18.70;12.90;;;9.80;99.90;;;;;;5255176;28;20192;-77
2021/05/15 02:24:31;;;;;;;15.77;11.50;;;9.80;99.90;;;;;;5253781;28;20193;-77
2021/05/15 02:27:01;;;;;;;17.93;12.53;;;9.90;99.90;;;;;;5252182;28;20184;-74
2021/05/15 02:29:32;;;;;;;16.47;11.47;;;9.90;99.90;;;;;;5251712;28;20169;-76
2021/05/15 02:32:03;;;;;;;17.90;12.73;;;9.90;99.90;;;;;;5250208;28;20177;-76
2021/05/15 02:34:34;;;;;;;17.53;13.23;;;10.00;99.90;;;;;;5248740;28;20173;-76
2021/05/15 02:37:04;;;;;;;15.30;12.57;;;10.00;99.90;;;;;;5249747;28;20173;-72
2021/05/15 02:39:35;;;;;;;19.57;13.23;;;10.10;99.90;;;;;;5249511;28;20184;-74
2021/05/15 02:42:06;;;;;;;17.00;14.20;;;10.10;99.90;;;;;;5249888;28;20177;-77
2021/05/15 02:44:36;;;;;;;17.67;13.73;;;10.10;99.90;;;;;;5249346;28;20216;-76
2021/05/15 02:47:07;;;;;;;18.23;13.47;;;10.20;99.90;;;;;;5249458;28;20181;-75
2021/05/15 02:49:38;;;;;;;17.97;13.23;;;10.10;99.90;;;;;;5249757;28;20211;-76
2021/05/15 02:52:08;;;;;;;15.60;12.40;;;10.20;99.90;;;;;;5249903;28;20648;-74
2021/05/15 02:54:40;;;;;;;18.80;14.63;;;10.20;99.90;;;;;;5249564;28;20181;-74
2021/05/15 02:57:11;;;;;;;19.63;14.70;;;10.30;99.90;;;;;;5249011;28;20687;-74
2021/05/15 02:59:42;;;;;;;19.10;14.73;;;10.30;99.90;;;;;;5249667;28;20227;-75
2021/05/15 03:02:12;;;;;;;20.33;14.90;;;10.30;99.90;;;;;;5249653;28;20180;-77
2021/05/15 03:04:43;;;;;;;22.17;15.90;;;10.30;99.90;;;;;;5249598;28;20181;-77
2021/05/15 03:07:14;;;;;;;18.03;13.50;;;10.30;99.90;;;;;;5249495;28;20185;-74
2021/05/15 03:09:45;;;;;;;20.03;13.67;;;10.40;99.90;;;;;;5249757;28;20183;-76
2021/05/15 03:12:16;;;;;;;19.17;14.13;;;10.40;99.90;;;;;;5248148;28;20260;-76
2021/05/15 03:14:47;;;;;;;19.70;14.37;;;10.40;99.90;;;;;;5248309;28;20332;-74
2021/05/15 03:17:17;;;;;;;19.10;13.77;;;10.40;99.90;;;;;;5248837;28;20209;-76
2021/05/15 03:19:48;;;;;;;17.03;13.57;;;10.50;99.90;;;;;;5247469;28;20169;-76
2021/05/15 03:22:21;;;;;;;20.43;14.50;;;10.50;99.90;;;;;;5249201;28;20616;-75
2021/05/15 03:24:52;;;;;;;17.60;13.53;;;10.50;99.90;;;;;;5249141;28;20177;-78
2021/05/15 03:27:23;;;;;;;19.20;14.63;;;10.50;99.90;;;;;;5248837;28;20181;-75
2021/05/15 03:29:53;;;;;;;20.10;14.77;;;10.50;99.90;;;;;;5249242;28;20169;-77
2021/05/15 03:32:24;;;;;;;20.53;15.17;;;10.50;99.90;;;;;;5249337;28;20616;-76
2021/05/15 03:34:55;;;;;;;18.33;13.50;;;10.60;99.90;;;;;;5248930;28;20745;-76
2021/05/15 03:37:26;;;;;;;19.67;15.07;;;10.60;99.90;;;;;;5249938;28;20205;-76
2021/05/15 03:39:56;;;;;;;15.23;11.90;;;10.60;99.90;;;;;;5250371;28;20612;-76
2021/05/15 03:42:27;;;;;;;15.57;11.50;;;10.60;99.90;;;;;;5249661;28;20254;-75
2021/05/15 03:44:58;;;;;;;20.23;13.17;;;10.60;99.90;;;;;;5248803;28;20173;-78
2021/05/15 03:47:29;;;;;;;15.73;11.83;;;10.70;99.90;;;;;;5249487;28;20185;-76
2021/05/15 03:49:59;;;;;;;15.00;10.73;;;10.70;99.90;;;;;;5249433;28;20173;-75
2021/05/15 03:52:30;;;;;;;13.47;9.70;;;10.70;99.90;;;;;;5249819;28;20181;-74
2021/05/15 03:55:01;;;;;;;14.37;10.40;;;10.70;99.90;;;;;;5250967;28;20173;-75
2021/05/15 03:57:32;;;;;;;10.93;9.20;;;10.70;99.90;;;;;;5251199;28;20231;-75
2021/05/15 04:00:03;;;;;;;13.10;9.47;;;10.80;99.90;;;;;;5248471;28;20177;-75
2021/05/15 04:02:35;;;;;;;11.27;8.67;;;10.80;99.90;;;;;;5248401;28;20177;-76
2021/05/15 04:05:08;;;;;;;12.27;9.30;;;10.80;99.90;;;;;;5247328;28;20196;-74
2021/05/15 04:07:39;;;;;;;11.40;8.73;;;10.80;99.90;;;;;;5248631;28;20188;-75
2021/05/15 04:10:10;;;;;;;13.50;9.47;;;10.80;99.90;;;;;;5248493;28;20177;-74
2021/05/15 04:12:49;;;;;;;14.80;10.00;;;10.80;99.90;;;;;;5248281;28;20628;-77
2021/05/15 04:15:36;;;;;;;13.43;9.50;;;10.80;99.90;;;;;;5248290;28;20204;-75
2021/05/15 04:18:09;;;;;;;11.83;8.73;;;10.80;99.90;;;;;;5248346;28;20306;-74
2021/05/15 04:20:42;;;;;;;15.27;10.37;;;10.80;99.90;;;;;;5248264;28;20630;-76
2021/05/15 04:27:03;;;;;;;10.37;8.30;;;10.90;99.90;;;;;;5247833;28;20169;-71
2021/05/15 04:29:34;;;;;;;12.50;9.77;;;10.90;99.90;;;;;;5251807;28;20187;-73
2021/05/15 04:32:05;;;;;;;12.80;10.07;;;10.90;99.90;;;;;;5252010;28;20526;-72
2021/05/15 04:34:36;;;;;;;13.60;10.03;;;10.90;99.90;;;;;;5252400;28;20616;-73
2021/05/15 04:37:07;;;;;;;12.10;9.67;;;10.90;99.90;;;;;;5253222;28;20173;-73
2021/05/15 04:43:23;;;;;;;13.27;10.50;;;11.00;99.90;;;;;;5254038;28;20223;-73
2021/05/15 04:45:55;;;;;;;11.97;8.83;;;10.90;99.90;;;;;;5254608;28;20185;-73
2021/05/15 04:48:26;;;;;;;16.80;10.40;;;11.00;99.90;;;;;;5252612;28;20256;-71
2021/05/15 04:50:57;;;;;;;11.80;9.50;;;11.00;99.90;;;;;;5252255;28;20184;-71
2021/05/15 04:53:29;;;;;;;13.20;9.37;;;11.00;99.90;;;;;;5252008;28;20173;-72
2021/05/15 04:56:00;;;;;;;13.83;9.73;;;11.00;99.90;;;;;;5251709;28;20592;-74
2021/05/15 04:58:31;;;;;;;15.27;10.20;;;11.00;99.90;;;;;;5251767;28;20209;-74
2021/05/15 05:01:03;;;;;;;16.00;10.60;;;11.10;99.90;;;;;;5250811;28;20539;-73
2021/05/15 05:03:34;;;;;;;13.73;10.70;;;11.10;99.90;;;;;;5251556;28;20569;-73
2021/05/15 05:06:05;;;;;;;18.53;10.87;;;11.10;99.90;;;;;;5250656;28;20219;-72
2021/05/15 05:08:36;;;;;;;16.17;10.87;;;11.10;99.90;;;;;;5251540;28;20342;-71
2021/05/15 05:11:06;;;;;;;17.37;11.40;;;11.10;99.90;;;;;;5251579;28;20181;-71
2021/05/15 05:13:37;;;;;;;16.27;10.80;;;11.10;99.90;;;;;;5250548;28;20223;-72
2021/05/15 05:16:08;;;;;;;14.87;10.47;;;11.10;99.90;;;;;;5251361;28;20177;-71
2021/05/15 05:18:38;;;;;;;13.77;10.30;;;11.10;99.90;;;;;;5251185;28;20212;-71
2021/05/15 05:21:09;;;;;;;13.77;10.17;;;11.20;99.90;;;;;;5251456;28;20311;-74
2021/05/15 05:23:40;;;;;;;17.90;12.20;;;11.20;99.90;;;;;;5251326;28;20176;-74
2021/05/15 05:26:11;;;;;;;15.93;11.13;;;11.10;99.90;;;;;;5251377;28;20185;-73
2021/05/15 05:28:43;;;;;;;15.93;10.37;;;11.20;99.90;;;;;;5250094;28;20169;-73
2021/05/15 05:31:13;;;;;;;20.27;12.00;;;11.20;99.90;;;;;;5251229;28;20181;-74
2021/05/15 05:33:46;;;;;;;15.50;11.17;;;11.30;99.90;;;;;;5251109;28;20188;-72
2021/05/15 05:36:16;;;;;;;13.47;8.93;;;11.30;99.90;;;;;;5250144;28;20195;-73
2021/05/15 05:38:47;;;;;;;13.07;9.93;;;11.30;99.90;;;;;;5249415;28;20301;-70
2021/05/15 05:41:20;;;;;;;15.30;11.27;;;11.40;99.90;;;;;;5250633;28;20183;-74
2021/05/15 05:43:54;;;;;;;15.17;10.27;;;11.40;99.90;;;;;;5251101;28;20188;-72
2021/05/15 05:46:25;;;;;;;12.50;10.37;;;11.50;99.90;;;;;;5250865;28;20177;-73
2021/05/15 05:48:55;;;;;;;18.57;11.90;;;11.50;99.90;;;;;;5250535;28;20177;-71
2021/05/15 05:51:27;;;;;;;17.17;11.70;;;11.60;99.90;;;;;;5250509;28;20234;-73
2021/05/15 05:53:57;;;;;;;17.70;11.23;;;11.70;99.90;;;;;;5250817;28;20199;-74
2021/05/15 05:56:28;;;;;;;17.80;11.10;;;11.70;99.90;;;;;;5250052;28;20641;-77
2021/05/15 05:58:59;;;;;;;17.80;11.70;;;11.70;99.90;;;;;;5252820;28;20209;-81
2021/05/15 06:01:30;;;;;;;16.50;11.33;;;11.70;99.90;;;;;;5252377;28;20227;-77
2021/05/15 06:04:01;;;;;;;16.73;10.87;;;11.70;99.90;;;;;;5251979;28;20217;-78
2021/05/15 06:06:31;;;;;;;15.73;11.83;;;11.70;99.90;;;;;;5251659;28;20524;-79
2021/05/15 06:09:04;;;;;;;18.63;12.70;;;11.60;99.90;;;;;;5254498;28;20169;-78
2021/05/15 06:11:35;;;;;;;16.53;12.50;;;11.60;99.90;;;;;;5255257;28;20674;-75
2021/05/15 06:14:06;;;;;;;18.83;12.37;;;11.60;99.90;;;;;;5253373;28;20188;-75
2021/05/15 06:16:36;;;;;;;17.73;12.90;;;11.60;99.90;;;;;;5251543;28;20217;-72
2021/05/15 06:19:07;;;;;;;20.40;12.37;;;11.60;99.90;;;;;;5250792;28;20241;-75
2021/05/15 06:21:38;;;;;;;17.33;12.03;;;11.60;99.90;;;;;;5250911;28;20260;-75
2021/05/15 06:24:09;;;;;;;21.23;12.40;;;11.60;99.90;;;;;;5250310;28;20621;-76
2021/05/15 06:26:40;;;;;;;16.27;12.03;;;11.60;99.90;;;;;;5250109;28;20177;-74
2021/05/15 06:29:10;;;;;;;18.13;13.33;;;11.70;99.90;;;;;;5249872;28;20514;-72
2021/05/15 06:31:41;;;;;;;19.73;13.23;;;11.80;99.90;;;;;;5250157;28;20177;-73
2021/05/15 06:34:12;;;;;;;16.90;11.13;;;11.80;99.90;;;;;;5250061;28;20169;-72
2021/05/15 06:36:43;;;;;;;19.60;12.70;;;11.80;99.90;;;;;;5250012;28;20185;-79
2021/05/15 06:39:13;;;;;;;21.67;13.57;;;11.80;99.90;;;;;;5250723;28;20216;-79
2021/05/15 06:41:44;;;;;;;20.20;13.33;;;11.80;99.90;;;;;;5251476;28;20497;-75
2021/05/15 06:44:15;;;;;;;18.47;13.40;;;11.80;99.90;;;;;;5251853;28;20180;-75
2021/05/15 06:46:46;;;;;;;18.20;12.87;;;11.90;99.90;;;;;;5250331;28;20177;-75
2021/05/15 06:49:17;;;;;;;22.07;13.23;;;11.80;99.90;;;;;;5251631;28;20176;-78
2021/05/15 06:51:47;;;;;;;16.10;12.23;;;11.90;99.90;;;;;;5250104;28;20209;-77
2021/05/15 07:01:36;;;;;;;18.27;12.90;;;11.90;99.90;;;;;;5165594;28;20654;-77
2021/05/15 07:04:07;;;;;;;16.70;12.77;;;12.00;99.90;;;;;;5165263;28;20254;-75
2021/05/15 07:06:37;;;;;;;17.00;11.87;;;11.90;99.90;;;;;;5165340;28;20278;-76
2021/05/15 07:09:08;;;;;;;15.67;11.93;;;12.00;99.90;;;;;;5165411;28;20191;-78
2021/05/15 07:15:34;;;;;;;19.07;12.40;;;12.00;99.90;;;;;;5164867;28;20229;-76
2021/05/15 07:18:05;;;;;;;20.80;14.07;;;12.10;99.90;;;;;;5165381;28;20227;-76
2021/05/15 07:20:36;;;;;;;19.90;12.87;;;12.10;99.90;;;;;;5166772;28;20199;-75
2021/05/15 07:23:07;;;;;;;22.23;14.43;;;12.10;99.90;;;;;;5167364;28;20199;-75
2021/05/15 07:25:38;;;;;;;20.80;13.87;;;12.20;99.90;;;;;;5165753;28;20180;-75
2021/05/15 07:28:09;;;;;;;22.63;14.13;;;12.20;99.90;;;;;;5164634;28;20713;-76
2021/05/15 07:30:39;;;;;;;19.83;13.83;;;12.20;99.90;;;;;;5164801;28;20180;-76
2021/05/15 07:33:12;;;;;;;21.30;13.37;;;12.20;99.90;;;;;;5169413;28;20180;-75
2021/05/15 07:35:43;;;;;;;20.00;13.00;;;12.30;99.90;;;;;;5228202;28;20173;-76
2021/05/15 07:38:13;;;;;;;18.13;13.00;;;12.30;99.90;;;;;;5228264;28;20300;-77
2021/05/15 07:40:44;;;;;;;20.43;13.47;;;12.30;99.90;;;;;;5228083;28;20268;-76
2021/05/15 07:43:22;;;;;;;20.33;14.37;;;12.30;99.90;;;;;;5228435;28;20174;-76
2021/05/15 07:45:55;;;;;;;19.23;13.73;;;12.30;99.90;;;;;;5228487;28;20182;-75
2021/05/15 07:48:29;;;;;;;18.37;13.13;;;12.30;99.90;;;;;;5228032;28;20180;-75
2021/05/15 07:51:00;;;;;;;18.73;13.33;;;12.40;99.90;;;;;;5226406;28;20272;-74
2021/05/15 07:53:31;;;;;;;19.37;13.13;;;12.40;99.90;;;;;;5227781;28;20272;-74
2021/05/15 07:56:05;;;;;;;18.33;12.43;;;12.40;99.90;;;;;;5227378;28;20261;-73
2021/05/15 07:58:35;;;;;;;19.27;11.67;;;12.30;99.90;;;;;;5227474;28;20220;-70
2021/05/15 08:01:06;;;;;;;18.27;11.10;;;12.40;99.90;;;;;;5246437;28;20224;-71
2021/05/15 08:03:37;;;;;;;15.03;10.17;;;12.40;99.90;;;;;;5252090;28;20523;-71
2021/05/15 08:06:08;;;;;;;14.17;10.00;;;12.40;99.90;;;;;;5252639;28;20177;-72
2021/05/15 08:08:38;;;;;;;13.40;9.97;;;12.40;99.90;;;;;;5252122;28;20177;-73
2021/05/15 08:11:11;;;;;;;14.30;10.27;;;12.40;99.90;;;;;;5252946;28;20187;-70
2021/05/15 08:13:42;;;;;;;13.53;9.17;;;12.40;99.90;;;;;;5252727;28;20177;-69
2021/05/15 08:16:13;;;;;;;14.00;9.00;;;12.40;99.90;;;;;;5251990;28;20582;-73
2021/05/15 08:18:44;;;;;;;14.07;8.33;;;12.40;99.90;;;;;;5252532;28;20204;-70
2021/05/15 08:21:15;;;;;;;11.77;8.00;;;12.40;99.90;;;;;;5252945;28;20264;-70
2021/05/15 08:23:46;;;;;;;11.70;7.73;;;12.40;99.90;;;;;;5251036;28;20647;-69
2021/05/15 08:26:16;;;;;;;13.20;8.73;;;12.40;99.90;;;;;;5252334;28;20519;-70
2021/05/15 08:28:51;;;;;;;16.33;8.20;;;12.40;99.90;;;;;;5252333;28;20616;-65
2021/05/15 08:31:22;;;;;;;12.30;7.47;;;12.40;99.90;;;;;;5251528;28;20576;-73
2021/05/15 08:33:53;;;;;;;11.87;7.70;;;12.50;99.90;;;;;;5250492;28;20173;-73
2021/05/15 08:36:24;;;;;;;11.17;7.27;;;12.50;99.90;;;;;;5251251;28;20173;-70
2021/05/15 08:38:56;;;;;;;10.47;6.83;;;12.40;99.90;;;;;;5250571;28;20212;-67
2021/05/15 08:41:27;;;;;;;8.77;6.77;;;12.50;99.90;;;;;;5251672;28;20173;-72
2021/05/15 08:44:01;;;;;;;11.17;7.03;;;12.50;99.90;;;;;;5250031;28;20169;-70
2021/05/15 08:46:32;;;;;;;9.63;6.50;;;12.50;99.90;;;;;;5251215;28;20180;-71
2021/05/15 08:49:06;;;;;;;10.30;6.53;;;12.50;99.90;;;;;;5251119;28;20207;-73
2021/05/15 08:51:37;;;;;;;9.60;7.00;;;12.50;99.90;;;;;;5249888;28;20180;-71
2021/05/15 08:54:08;;;;;;;9.07;7.23;;;12.50;99.90;;;;;;5250234;28;20263;-70
2021/05/15 08:56:39;;;;;;;10.27;7.73;;;12.50;99.90;;;;;;5249716;28;20272;-72
2021/05/15 08:59:10;;;;;;;14.00;7.13;;;12.50;99.90;;;;;;5250937;28;20236;-71
2021/05/15 09:01:45;;;;;;;14.07;6.60;;;12.50;99.90;;;;;;5249376;28;20196;-70
2021/05/15 09:04:16;;;;;;;7.53;5.40;;;12.50;99.90;;;;;;5251085;28;20260;-71
2021/05/15 09:06:48;;;;;;;11.83;6.50;;;12.50;99.90;;;;;;5249845;28;20213;-70
2021/05/15 09:09:20;;;;;;;7.90;5.77;;;12.40;99.90;;;;;;5250585;28;20186;-71
2021/05/15 09:11:52;;;;;;;9.13;6.73;;;12.50;99.90;;;;;;5250461;28;20201;-70
2021/05/15 09:14:25;;;;;;;11.90;6.10;;;12.50;99.90;;;;;;5249582;28;20284;-69
2021/05/15 09:16:59;;;;;;;8.83;6.40;;;12.50;99.90;;;;;;5250509;28;20607;-71
2021/05/15 09:19:32;;;;;;;8.77;6.43;;;12.50;99.90;;;;;;5250756;28;20216;-69
2021/05/15 09:22:06;;;;;;;10.07;6.63;;;12.50;99.90;;;;;;5251046;28;20219;-68
2021/05/15 09:24:40;;;;;;;12.00;6.97;;;12.50;99.90;;;;;;5250922;28;20201;-70
2021/05/15 09:27:12;;;;;;;14.20;9.53;;;12.40;99.90;;;;;;5251372;28;20196;-69
2021/05/15 09:29:49;;;;;;;13.10;8.83;;;12.20;99.90;;;;;;5251789;28;20659;-73
2021/05/15 09:32:33;;;;;;;13.83;8.77;;;12.10;99.90;;;;;;5250859;28;20199;-74
2021/05/15 09:35:06;;;;;;;11.07;7.43;;;12.00;99.90;;;;;;5250548;28;20200;-69
2021/05/15 09:37:42;;;;;;;11.07;7.80;;;12.10;99.90;;;;;;5250647;28;20576;-79
2021/05/15 09:40:33;;;;;;;11.20;7.23;;;12.10;99.90;;;;;;5248258;28;20560;-68
2021/05/15 09:43:26;;;;;;;10.90;7.33;;;12.20;99.90;;;;;;5204757;28;20207;-70
2021/05/15 09:45:58;;;;;;;11.00;7.80;;;12.30;99.90;;;;;;5203930;28;20659;-69
2021/05/15 09:48:36;;;;;;;12.00;7.67;;;12.40;99.90;;;;;;5203690;28;20728;-70
2021/05/15 09:51:18;;;;;;;9.63;7.23;;;12.40;99.90;;;;;;5204979;28;20208;-71
2021/05/15 09:53:52;;;;;;;9.27;6.07;;;12.50;99.90;;;;;;5204355;28;20198;-69
2021/05/15 10:00:19;;;;;;;5.50;4.20;;;12.40;99.90;;;;;;5204148;28;20229;-67
2021/05/15 10:02:53;;;;;;;7.77;4.30;;;12.30;99.90;;;;;;5248076;28;20711;-65
2021/05/15 10:05:25;;;;;;;9.47;5.37;;;12.30;99.90;;;;;;5248132;28;20299;-67
2021/05/15 10:08:07;;;;;;;6.43;5.03;;;12.30;99.90;;;;;;5247801;28;20231;-66
2021/05/15 10:10:39;;;;;;;8.30;5.57;;;12.20;99.90;;;;;;5248578;28;20201;-66
2021/05/15 10:17:07;;;;;;;7.43;5.23;;;12.10;99.90;;;;;;5247904;28;20184;-74
2021/05/15 10:19:39;;;;;;;6.87;5.33;;;12.10;99.90;;;;;;5247055;28;20239;-71
2021/05/15 10:22:11;;;;;;;10.37;5.60;;;12.20;99.90;;;;;;5247682;28;20193;-72
2021/05/15 10:24:46;;;;;;;8.60;5.33;;;12.10;99.90;;;;;;5247568;28;20201;-71
2021/05/15 10:27:18;;;;;;;5.23;4.57;;;12.30;99.90;;;;;;5247611;28;20192;-69
2021/05/15 10:29:54;;;;;;;4.43;3.90;;;12.30;99.90;;;;;;5248570;28;20205;-69
2021/05/15 10:32:30;;;;;;;6.43;4.30;;;12.30;99.90;;;;;;5250077;28;20201;-69
2021/05/15 10:35:07;;;;;;;4.70;3.87;;;12.50;99.90;;;;;;5250605;28;20197;-68
2021/05/15 10:37:43;;;;;;;6.03;4.43;;;12.60;99.90;;;;;;5249238;28;20616;-68
2021/05/15 10:40:17;;;;;;;5.93;4.37;;;12.80;99.90;;;;;;5248857;28;20199;-68
2021/05/15 10:43:01;;;;;;;5.17;4.23;;;13.00;99.90;;;;;;5248544;28;20189;-68
2021/05/15 10:45:33;;;;;;;6.63;4.20;;;13.20;99.90;;;;;;5248703;28;20197;-67
2021/05/15 10:48:22;;;;;;;5.43;4.10;;;13.30;99.90;;;;;;5248799;28;20193;-68
2021/05/15 10:50:59;;;;;;;5.23;3.60;;;13.50;99.90;;;;;;5248884;28;20200;-71
2021/05/15 10:53:33;;;;;;;4.50;3.27;;;13.80;99.90;;;;;;5249360;28;20239;-75
2021/05/15 10:59:58;;;;;;;2.77;2.00;;;14.30;99.90;;;;;;5227128;28;20280;-73
2021/05/15 11:02:37;;;;;;;3.27;2.30;;;14.60;99.90;;;;;;5225777;28;20622;-71
2021/05/15 11:05:17;;;;;;;2.87;1.50;;;14.80;99.90;;;;;;5226034;28;20201;-69
2021/05/15 11:07:49;;;;;;;2.00;1.40;;;15.00;99.90;;;;;;5209225;28;20197;-69
2021/05/15 11:10:22;;;;;;;1.87;1.67;;;15.20;99.90;;;;;;5225951;28;20784;-77
2021/05/15 11:17:03;;;;;;;3.07;1.27;;;15.80;99.90;;;;;;5226044;28;20278;-72
2021/05/15 11:19:35;;;;;;;3.53;1.27;;;16.40;99.90;;;;;;5225483;28;20232;-71
2021/05/15 11:22:07;;;;;;;2.93;1.43;;;16.60;99.90;;;;;;5225714;28;20217;-66
2021/05/15 11:24:39;;;;;;;1.77;1.27;;;16.70;99.90;;;;;;5225908;28;20213;-71
2021/05/15 11:27:16;;;;;;;2.20;1.37;;;16.70;99.90;;;;;;5225889;28;20553;-68
2021/05/15 11:30:02;;;;;;;2.67;1.70;;;16.60;99.90;;;;;;5234935;28;20205;-68
2021/05/15 11:32:34;;;;;;;2.20;1.50;;;16.40;99.90;;;;;;5246583;28;20533;-70
2021/05/15 11:35:08;;;;;;;1.80;1.20;;;16.00;99.90;;;;;;5248237;28;20199;-67
2021/05/15 11:37:40;;;;;;;3.27;1.27;;;15.70;99.90;;;;;;5244463;28;20193;-70
2021/05/15 11:40:13;;;;;;;1.97;1.17;;;15.50;99.90;;;;;;5247125;28;20221;-68
2021/05/15 11:42:45;;;;;;;1.40;1.10;;;15.40;99.90;;;;;;5248138;28;20211;-67
2021/05/15 11:45:24;;;;;;;2.47;1.40;;;15.50;99.90;;;;;;5246779;28;20310;-66
2021/05/15 11:48:24;;;;;;;2.00;1.50;;;15.40;99.90;;;;;;5248020;28;20215;-66
2021/05/15 11:51:02;;;;;;;2.83;1.37;;;15.40;99.90;;;;;;5245880;28;20669;-68
2021/05/15 11:53:39;;;;;;;3.50;1.97;;;15.50;99.90;;;;;;5247895;28;20204;-68
2021/05/15 11:56:15;;;;;;;3.67;1.90;;;15.60;99.90;;;;;;5247613;28;20208;-67
2021/05/15 11:59:00;;;;;;;2.53;1.60;;;15.90;99.90;;;;;;5247871;28;20260;-67
2021/05/15 12:01:35;;;;;;;1.83;1.30;;;16.20;99.90;;;;;;5247941;28;20193;-68
2021/05/15 12:04:11;;;;;;;2.23;1.50;;;16.40;99.90;;;;;;5244710;28;20188;-71
2021/05/15 12:06:45;;;;;;;3.13;1.70;;;16.50;99.90;;;;;;5247596;28;20197;-68
2021/05/15 12:09:18;;;;;;;2.47;1.50;;;16.60;99.90;;;;;;5246325;28;20200;-71
2021/05/15 12:15:38;;;;;;;1.83;1.30;;;16.90;99.90;;;;;;5246925;28;20201;-71
2021/05/15 12:18:12;;;;;;;2.20;1.47;;;17.20;99.90;;;;;;5247796;28;20189;-69
2021/05/15 12:20:50;;;;;;;1.87;1.13;;;17.20;99.90;;;;;;5247723;28;20200;-69
2021/05/15 12:23:26;;;;;;;4.70;1.60;;;17.20;99.90;;;;;;5246693;28;20189;-69
2021/05/15 12:26:07;;;;;;;2.00;1.57;;;17.20;99.90;;;;;;5247710;28;20188;-71
2021/05/15 12:32:27;;;;;;;1.83;1.37;;;17.50;99.90;;;;;;5246373;28;20219;-70
2021/05/15 12:35:09;;;;;;;2.72;1.20;;;17.70;99.90;;;;;;5247853;28;20188;-69
2021/05/15 12:37:41;;;;;;;3.10;1.23;;;17.70;99.90;;;;;;5248018;28;20189;-71
2021/05/15 12:40:14;;;;;;;2.38;1.15;;;17.60;99.90;;;;;;5248631;28;20602;-72
2021/05/15 12:42:46;;;;;;;2.13;1.10;;;17.60;99.90;;;;;;5246295;28;20629;-68
2021/05/15 12:45:19;;;;;;;1.98;1.02;;;17.70;99.90;;;;;;5248179;28;20197;-69
2021/05/15 12:47:51;;;;;;;2.10;1.20;;;17.70;99.90;;;;;;5247583;28;20186;-70
2021/05/15 12:50:28;;;;;;;1.98;1.02;;;17.60;99.90;;;;;;5250281;28;20189;-68
2021/05/15 12:53:11;;;;;;;2.78;1.20;;;17.50;99.90;;;;;;5250772;28;20550;-69
2021/05/15 12:55:50;;;;;;;1.70;1.13;;;17.50;99.90;;;;;;5251310;28;20215;-69
2021/05/15 12:58:24;;;;;;;1.65;1.10;;;17.30;99.90;;;;;;5251206;28;20263;-71
2021/05/15 13:01:05;;;;;;;4.15;1.58;;;17.30;99.90;;;;;;5249592;28;20239;-72
2021/05/15 13:03:52;;;;;;;3.58;1.30;;;17.30;99.90;;;;;;5251089;28;20215;-78
2021/05/15 13:06:24;;;;;;;1.98;1.13;;;17.30;99.90;;;;;;5251256;28;20197;-68
2021/05/15 13:08:58;;;;;;;1.75;1.00;;;17.10;99.90;;;;;;5251083;28;20549;-70
2021/05/15 13:11:31;;;;;;;2.83;1.23;;;17.20;99.90;;;;;;5250556;28;20185;-69
2021/05/15 13:14:04;;;;;;;1.95;1.35;;;17.30;99.90;;;;;;5249135;28;20279;-74
2021/05/15 13:16:36;;;;;;;2.92;1.10;;;17.50;99.90;;;;;;5248716;28;20196;-72
2021/05/15 13:19:08;;;;;;;1.75;1.05;;;17.70;99.90;;;;;;5251566;28;20663;-74
2021/05/15 13:21:40;;;;;;;3.55;1.73;;;17.90;99.90;;;;;;5251497;28;20204;-70
2021/05/15 13:24:12;;;;;;;1.48;1.13;;;18.10;99.90;;;;;;5251766;28;20189;-69
2021/05/15 13:26:45;;;;;;;3.78;1.33;;;18.30;99.90;;;;;;5251192;28;20284;-69
2021/05/15 13:29:17;;;;;;;1.92;1.10;;;18.40;99.90;;;;;;5251030;28;20686;-70
2021/05/15 13:31:49;;;;;;;1.52;1.13;;;18.50;99.90;;;;;;5250909;28;20197;-68
2021/05/15 13:34:21;;;;;;;3.35;1.38;;;18.60;99.90;;;;;;5251034;28;20212;-68
2021/05/15 13:36:55;;;;;;;2.75;1.60;;;18.60;99.90;;;;;;5250753;28;20760;-68
2021/05/15 13:39:28;;;;;;;2.53;1.50;;;18.70;99.90;;;;;;5249731;28;20646;-68
2021/05/15 13:42:00;;;;;;;1.42;1.10;;;18.50;99.90;;;;;;5249435;28;20200;-67
2021/05/15 13:44:32;;;;;;;2.80;1.15;;;18.10;99.90;;;;;;5250822;28;20196;-67